createdAt,value
2018-06-11T00:00:34.824Z,99.99
2018-06-11T00:01:34.850Z,99.99
2018-06-11T00:02:34.924Z,99.99
2018-06-11T00:03:34.893Z,99.99
2018-06-11T00:04:34.913Z,99.99
2018-06-11T00:05:34.937Z,99.99
2018-06-11T00:06:34.959Z,99.99
2018-06-11T00:07:34.985Z,99.99
2018-06-11T00:08:35.002Z,99.99
2018-06-11T00:09:35.028Z,99.99
2018-06-11T00:10:35.046Z,99.99
2018-06-11T00:11:35.072Z,99.99
2018-06-11T00:12:35.092Z,99.99
2018-06-11T00:13:35.115Z,99.99
2018-06-11T00:14:35.136Z,99.99
2018-06-11T00:15:35.159Z,99.99
2018-06-11T00:16:35.181Z,99.99
2018-06-11T00:17:35.203Z,99.99
2018-06-11T00:18:35.224Z,99.99
2018-06-11T00:19:35.250Z,99.99
2018-06-11T00:20:35.267Z,99.99
2018-06-11T00:21:35.290Z,99.99
2018-06-11T00:22:35.315Z,99.99
2018-06-11T00:23:35.338Z,99.99
2018-06-11T00:24:35.358Z,99.99
2018-06-11T00:25:35.378Z,99.99
2018-06-11T00:26:35.404Z,99.99
2018-06-11T00:27:35.423Z,99.99
2018-06-11T00:28:35.444Z,99.99
2018-06-11T00:29:35.470Z,99.99
2018-06-11T00:30:35.491Z,99.99
2018-06-11T00:31:35.515Z,99.99
2018-06-11T00:32:35.535Z,99.99
2018-06-11T00:33:35.558Z,99.99
2018-06-11T00:34:35.579Z,99.99
2018-06-11T00:35:35.600Z,99.99
2018-06-11T00:36:35.624Z,99.99
2018-06-11T00:37:35.747Z,99.99
2018-06-11T00:38:35.665Z,99.99
2018-06-11T00:39:35.692Z,99.99
2018-06-11T00:40:35.712Z,99.99
2018-06-11T00:41:35.731Z,99.99
2018-06-11T00:42:35.756Z,99.99
2018-06-11T00:43:35.779Z,99.99
2018-06-11T00:44:35.797Z,99.99
2018-06-11T00:45:35.823Z,99.99
2018-06-11T00:46:35.844Z,99.99
2018-06-11T00:47:35.867Z,99.99
2018-06-11T00:48:35.888Z,99.99
2018-06-11T00:49:35.911Z,99.99
2018-06-11T00:50:35.938Z,99.99
2018-06-11T00:51:35.954Z,99.99
2018-06-11T00:52:35.975Z,99.99
2018-06-11T00:53:35.997Z,99.99
2018-06-11T00:54:36.020Z,99.99
2018-06-11T00:55:36.040Z,99.99
2018-06-11T00:56:36.066Z,99.99
2018-06-11T00:57:36.086Z,99.99
2018-06-11T00:58:36.108Z,99.99
2018-06-11T00:59:36.130Z,99.99
2018-06-11T01:00:36.153Z,99.99
2018-06-11T01:01:36.175Z,99.99
2018-06-11T01:02:36.195Z,99.99
2018-06-11T01:03:36.217Z,99.99
2018-06-11T01:04:36.237Z,99.99
2018-06-11T01:05:36.260Z,99.99
2018-06-11T01:06:36.280Z,99.99
2018-06-11T01:07:36.306Z,99.99
2018-06-11T01:08:36.328Z,99.99
2018-06-11T01:09:36.348Z,99.99
2018-06-11T01:10:36.371Z,99.99
2018-06-11T01:11:36.390Z,99.99
2018-06-11T01:12:36.418Z,99.99
2018-06-11T01:13:36.434Z,99.99
2018-06-11T01:14:36.460Z,99.99
2018-06-11T01:15:36.479Z,99.99
2018-06-11T01:16:36.503Z,99.99
2018-06-11T01:17:36.525Z,99.99
2018-06-11T01:18:36.544Z,99.99
2018-06-11T01:19:36.567Z,99.99
2018-06-11T01:20:36.594Z,99.99
2018-06-11T01:21:36.615Z,99.99
2018-06-11T01:22:36.631Z,99.99
2018-06-11T01:23:36.654Z,99.99
2018-06-11T01:24:36.678Z,99.99
2018-06-11T01:25:36.700Z,99.99
2018-06-11T01:26:36.719Z,99.99
2018-06-11T01:27:36.744Z,99.99
2018-06-11T01:28:36.765Z,99.99
2018-06-11T01:29:36.787Z,99.99
2018-06-11T01:30:36.806Z,99.99
2018-06-11T01:31:36.832Z,99.99
2018-06-11T01:32:36.853Z,99.99
2018-06-11T01:33:36.874Z,99.99
2018-06-11T01:34:36.894Z,99.99
2018-06-11T01:35:36.917Z,99.99
2018-06-11T01:36:36.938Z,99.99
2018-06-11T01:37:36.961Z,99.99
2018-06-11T01:38:36.985Z,99.99
2018-06-11T01:39:37.009Z,99.99
2018-06-11T01:40:37.028Z,99.99
2018-06-11T01:41:37.047Z,99.99
2018-06-11T01:42:37.069Z,99.99
2018-06-11T01:43:37.094Z,99.99
2018-06-11T01:44:37.115Z,99.99
2018-06-11T01:45:37.134Z,99.99
2018-06-11T01:46:37.159Z,99.99
2018-06-11T01:47:37.178Z,99.99
2018-06-11T01:48:37.202Z,99.99
2018-06-11T01:49:37.225Z,99.99
2018-06-11T01:50:37.243Z,99.99
2018-06-11T01:51:37.269Z,99.99
2018-06-11T01:52:37.289Z,99.99
2018-06-11T01:53:37.312Z,99.99
2018-06-11T01:54:37.331Z,99.99
2018-06-11T01:55:37.355Z,99.99
2018-06-11T01:56:37.377Z,99.99
2018-06-11T01:57:37.399Z,99.99
2018-06-11T01:58:37.418Z,99.99
2018-06-11T01:59:37.441Z,99.99
2018-06-11T02:00:37.460Z,99.99
2018-06-11T02:01:37.485Z,99.99
2018-06-11T02:02:37.508Z,99.99
2018-06-11T02:03:37.527Z,99.99
2018-06-11T02:04:37.548Z,99.99
2018-06-11T02:05:37.577Z,99.99
2018-06-11T02:06:37.592Z,99.99
2018-06-11T02:07:37.616Z,99.99
2018-06-11T02:08:37.638Z,99.99
2018-06-11T02:09:37.657Z,99.99
2018-06-11T02:10:37.682Z,99.99
2018-06-11T02:11:37.701Z,99.99
2018-06-11T02:12:37.724Z,99.99
2018-06-11T02:13:37.744Z,99.99
2018-06-11T02:14:37.771Z,99.99
2018-06-11T02:15:37.788Z,99.99
2018-06-11T02:16:37.811Z,99.99
2018-06-11T02:17:37.837Z,99.99
2018-06-11T02:18:37.853Z,99.99
2018-06-11T02:19:37.878Z,99.99
2018-06-11T02:20:37.897Z,99.99
2018-06-11T02:21:37.921Z,99.99
2018-06-11T02:22:37.941Z,99.99
2018-06-11T02:23:37.965Z,99.99
2018-06-11T02:24:37.983Z,99.99
2018-06-11T02:25:38.007Z,99.99
2018-06-11T02:26:38.027Z,99.99
2018-06-11T02:27:38.049Z,99.99
2018-06-11T02:28:38.069Z,99.99
2018-06-11T02:29:38.092Z,99.99
2018-06-11T02:30:38.114Z,99.99
2018-06-11T02:31:38.138Z,99.99
2018-06-11T02:32:38.157Z,99.99
2018-06-11T02:33:38.178Z,99.99
2018-06-11T02:34:38.202Z,99.99
2018-06-11T02:35:38.228Z,99.99
2018-06-11T02:36:38.247Z,99.99
2018-06-11T02:37:38.269Z,99.99
2018-06-11T02:38:38.354Z,99.99
2018-06-11T02:39:38.310Z,99.99
2018-06-11T02:40:38.333Z,99.99
2018-06-11T02:41:38.355Z,99.99
2018-06-11T02:42:38.377Z,99.99
2018-06-11T02:43:38.399Z,99.99
2018-06-11T02:44:38.419Z,99.99
2018-06-11T02:45:38.441Z,99.99
2018-06-11T02:46:38.465Z,99.99
2018-06-11T02:47:38.486Z,99.99
2018-06-11T02:48:38.505Z,99.99
2018-06-11T02:49:38.530Z,99.99
2018-06-11T02:50:38.553Z,99.99
2018-06-11T02:51:38.571Z,99.99
2018-06-11T02:52:38.594Z,99.99
2018-06-11T02:53:38.613Z,99.99
2018-06-11T02:54:38.638Z,99.99
2018-06-11T02:55:38.659Z,99.99
2018-06-11T02:56:38.680Z,99.99
2018-06-11T02:57:38.704Z,99.99
2018-06-11T02:58:38.722Z,99.99
2018-06-11T02:59:38.745Z,99.99
2018-06-11T03:00:38.769Z,99.99
2018-06-11T03:01:38.787Z,99.99
2018-06-11T03:02:38.812Z,99.99
2018-06-11T03:03:38.833Z,99.99
2018-06-11T03:04:38.855Z,99.99
2018-06-11T03:05:38.875Z,99.99
2018-06-11T03:06:38.899Z,99.99
2018-06-11T03:07:38.924Z,99.99
2018-06-11T03:08:38.947Z,99.99
2018-06-11T03:09:38.966Z,99.99
2018-06-11T03:10:38.989Z,99.99
2018-06-11T03:11:39.008Z,99.99
2018-06-11T03:12:39.027Z,99.99
2018-06-11T03:13:39.050Z,99.99
2018-06-11T03:14:39.071Z,99.99
2018-06-11T03:15:39.193Z,99.99
2018-06-11T03:16:39.114Z,99.99
2018-06-11T03:17:39.137Z,99.99
2018-06-11T03:18:39.162Z,99.99
2018-06-11T03:19:39.180Z,99.99
2018-06-11T03:20:39.205Z,99.99
2018-06-11T03:21:39.227Z,99.99
2018-06-11T03:22:39.250Z,99.99
2018-06-11T03:23:39.304Z,99.99
2018-06-11T03:24:39.292Z,99.99
2018-06-11T03:25:39.315Z,99.99
2018-06-11T03:26:39.336Z,99.99
2018-06-11T03:27:39.356Z,99.99
2018-06-11T03:28:39.377Z,99.99
2018-06-11T03:29:39.401Z,99.99
2018-06-11T03:30:39.424Z,99.99
2018-06-11T03:31:39.444Z,99.99
2018-06-11T03:32:39.465Z,99.99
2018-06-11T03:33:39.490Z,99.99
2018-06-11T03:34:39.510Z,99.99
2018-06-11T03:35:39.536Z,99.99
2018-06-11T03:36:39.555Z,99.99
2018-06-11T03:37:39.574Z,99.99
2018-06-11T03:38:39.600Z,99.99
2018-06-11T03:39:39.624Z,99.99
2018-06-11T03:40:39.640Z,99.99
2018-06-11T03:41:39.665Z,99.99
2018-06-11T03:42:39.687Z,99.99
2018-06-11T03:43:39.710Z,99.99
2018-06-11T03:44:39.731Z,99.99
2018-06-11T03:45:39.754Z,99.99
2018-06-11T03:46:39.773Z,99.99
2018-06-11T03:47:39.797Z,99.99
2018-06-11T03:48:39.826Z,99.99
2018-06-11T03:49:39.839Z,99.99
2018-06-11T03:50:39.863Z,99.99
2018-06-11T03:51:39.887Z,99.99
2018-06-11T03:52:39.908Z,99.99
2018-06-11T03:53:39.930Z,99.99
2018-06-11T03:54:39.952Z,99.99
2018-06-11T03:55:39.971Z,99.99
2018-06-11T03:56:39.992Z,99.99
2018-06-11T03:57:40.018Z,99.99
2018-06-11T03:58:40.037Z,99.99
2018-06-11T03:59:40.062Z,99.99
2018-06-11T04:00:40.097Z,99.99
2018-06-11T04:01:40.105Z,99.99
2018-06-11T04:02:40.124Z,99.99
2018-06-11T04:03:40.147Z,99.99
2018-06-11T04:04:40.171Z,99.99
2018-06-11T04:05:40.190Z,99.99
2018-06-11T04:06:40.215Z,99.99
2018-06-11T04:07:40.240Z,99.99
2018-06-11T04:08:40.257Z,99.99
2018-06-11T04:09:40.277Z,99.99
2018-06-11T04:10:40.359Z,99.99
2018-06-11T04:11:40.325Z,99.99
2018-06-11T04:12:40.343Z,99.99
2018-06-11T04:13:40.367Z,99.99
2018-06-11T04:14:40.388Z,99.99
2018-06-11T04:15:40.413Z,99.99
2018-06-11T04:16:40.431Z,99.99
2018-06-11T04:17:40.460Z,99.99
2018-06-11T04:18:40.478Z,99.99
2018-06-11T04:19:40.497Z,99.99
2018-06-11T04:20:40.521Z,99.99
2018-06-11T04:21:40.539Z,99.99
2018-06-11T04:22:40.563Z,99.99
2018-06-11T04:23:40.586Z,99.99
2018-06-11T04:24:40.607Z,99.99
2018-06-11T04:25:40.634Z,99.99
2018-06-11T04:26:40.654Z,99.99
2018-06-11T04:27:40.672Z,99.99
2018-06-11T04:28:40.692Z,99.99
2018-06-11T04:29:40.714Z,99.99
2018-06-11T04:30:40.794Z,99.99
2018-06-11T04:31:40.759Z,99.99
2018-06-11T04:32:40.788Z,99.99
2018-06-11T04:33:40.802Z,99.99
2018-06-11T04:34:40.825Z,99.99
2018-06-11T04:35:40.845Z,99.99
2018-06-11T04:36:40.869Z,99.99
2018-06-11T04:37:40.888Z,99.99
2018-06-11T04:38:40.913Z,99.99
2018-06-11T04:39:40.984Z,99.99
2018-06-11T04:40:40.953Z,99.99
2018-06-11T04:41:40.977Z,99.99
2018-06-11T04:42:40.997Z,99.99
2018-06-11T04:43:41.019Z,99.99
2018-06-11T04:44:41.044Z,99.99
2018-06-11T04:45:41.064Z,99.99
2018-06-11T04:46:41.088Z,99.99
2018-06-11T04:47:41.106Z,99.99
2018-06-11T04:48:41.129Z,99.99
2018-06-11T04:49:41.149Z,99.99
2018-06-11T04:50:41.173Z,99.99
2018-06-11T04:51:41.193Z,99.99
2018-06-11T04:52:41.216Z,99.99
2018-06-11T04:53:41.236Z,99.99
2018-06-11T04:54:41.262Z,99.99
2018-06-11T04:55:41.284Z,99.99
2018-06-11T04:56:41.301Z,99.99
2018-06-11T04:57:41.324Z,99.99
2018-06-11T04:58:41.350Z,99.99
2018-06-11T04:59:41.370Z,99.99
2018-06-11T05:00:41.390Z,99.99
2018-06-11T05:01:41.418Z,99.99
2018-06-11T05:02:41.438Z,99.99
2018-06-11T05:03:41.457Z,99.99
2018-06-11T05:04:41.479Z,99.99
2018-06-11T05:05:41.500Z,99.99
2018-06-11T05:06:41.522Z,99.99
2018-06-11T05:07:41.542Z,99.99
2018-06-11T05:08:41.565Z,99.99
2018-06-11T05:09:41.587Z,99.99
2018-06-11T05:10:41.612Z,99.99
2018-06-11T05:11:41.631Z,99.99
2018-06-11T05:12:41.653Z,99.99
2018-06-11T05:13:41.674Z,99.99
2018-06-11T05:14:41.697Z,99.99
2018-06-11T05:15:41.719Z,99.99
2018-06-11T05:16:41.744Z,99.99
2018-06-11T05:17:41.760Z,99.99
2018-06-11T05:18:41.782Z,99.99
2018-06-11T05:19:41.807Z,99.99
2018-06-11T05:20:41.824Z,99.99
2018-06-11T05:21:41.847Z,99.99
2018-06-11T05:22:41.869Z,99.99
2018-06-11T05:23:41.893Z,99.99
2018-06-11T05:24:41.914Z,99.99
2018-06-11T05:25:41.939Z,99.99
2018-06-11T05:26:41.957Z,99.99
2018-06-11T05:27:41.982Z,99.99
2018-06-11T05:28:42.029Z,99.99
2018-06-11T05:29:42.022Z,99.99
2018-06-11T05:30:42.043Z,99.99
2018-06-11T05:31:42.072Z,99.99
2018-06-11T05:32:42.086Z,99.99
2018-06-11T05:33:42.108Z,99.99
2018-06-11T05:34:42.198Z,99.99
2018-06-11T05:35:42.155Z,99.99
2018-06-11T05:36:42.177Z,99.99
2018-06-11T05:37:42.204Z,99.99
2018-06-11T05:38:42.220Z,99.99
2018-06-11T05:39:42.247Z,99.99
2018-06-11T05:40:42.262Z,99.99
2018-06-11T05:41:42.285Z,99.99
2018-06-11T05:42:42.309Z,99.99
2018-06-11T05:43:42.328Z,99.99
2018-06-11T05:44:42.352Z,99.99
2018-06-11T05:45:42.374Z,99.99
2018-06-11T05:46:42.397Z,99.99
2018-06-11T05:47:42.417Z,99.99
2018-06-11T05:48:42.438Z,99.99
2018-06-11T05:49:42.460Z,99.99
2018-06-11T05:50:42.485Z,99.99
2018-06-11T05:51:42.508Z,99.99
2018-06-11T05:52:42.531Z,99.99
2018-06-11T05:53:42.551Z,99.99
2018-06-11T05:54:42.576Z,99.99
2018-06-11T05:55:42.596Z,99.99
2018-06-11T05:56:42.615Z,99.99
2018-06-11T05:57:42.639Z,99.99
2018-06-11T05:58:42.662Z,99.99
2018-06-11T05:59:42.684Z,99.99
2018-06-11T06:00:42.705Z,99.99
2018-06-11T06:01:42.732Z,99.99
2018-06-11T06:02:42.750Z,99.99
2018-06-11T06:03:42.773Z,99.99
2018-06-11T06:04:42.791Z,99.99
2018-06-11T06:05:42.814Z,99.99
2018-06-11T06:06:42.841Z,99.99
2018-06-11T06:07:42.860Z,99.99
2018-06-11T06:08:42.889Z,99.99
2018-06-11T06:09:42.906Z,99.99
2018-06-11T06:10:42.929Z,99.99
2018-06-11T06:11:42.948Z,99.99
2018-06-11T06:12:42.970Z,99.99
2018-06-11T06:13:42.995Z,99.99
2018-06-11T06:14:43.015Z,99.99
2018-06-11T06:15:43.037Z,99.99
2018-06-11T06:16:43.063Z,99.99
2018-06-11T06:17:43.082Z,99.99
2018-06-11T06:18:43.106Z,99.99
2018-06-11T06:19:43.127Z,99.99
2018-06-11T06:20:43.152Z,99.99
2018-06-11T06:21:43.171Z,99.99
2018-06-11T06:22:43.197Z,99.99
2018-06-11T06:23:43.219Z,99.99
2018-06-11T06:24:43.238Z,99.99
2018-06-11T06:25:43.263Z,99.99
2018-06-11T06:26:43.336Z,99.99
2018-06-11T06:27:43.309Z,99.99
2018-06-11T06:28:43.330Z,99.99
2018-06-11T06:29:43.354Z,99.99
2018-06-11T06:30:43.373Z,99.99
2018-06-11T06:31:43.397Z,99.99
2018-06-11T06:32:43.418Z,99.99
2018-06-11T06:33:43.445Z,99.99
2018-06-11T06:34:43.581Z,99.99
2018-06-11T06:35:43.487Z,99.99
2018-06-11T06:36:43.512Z,99.99
2018-06-11T06:37:43.533Z,99.99
2018-06-11T06:38:43.558Z,99.99
2018-06-11T06:39:43.584Z,99.99
2018-06-11T06:40:43.599Z,99.99
2018-06-11T06:41:43.624Z,99.99
2018-06-11T06:42:43.648Z,99.99
2018-06-11T06:43:43.682Z,99.99
2018-06-11T06:44:43.692Z,99.99
2018-06-11T06:45:43.719Z,99.99
2018-06-11T06:46:43.737Z,99.99
2018-06-11T06:47:43.762Z,99.99
2018-06-11T06:48:43.834Z,99.99
2018-06-11T06:49:43.808Z,99.99
2018-06-11T06:50:43.829Z,99.99
2018-06-11T06:51:43.854Z,99.99
2018-06-11T06:52:43.911Z,99.99
2018-06-11T06:53:43.944Z,99.99
2018-06-11T06:54:43.918Z,99.99
2018-06-11T06:55:43.945Z,99.99
2018-06-11T06:56:43.965Z,99.99
2018-06-11T06:57:43.989Z,99.99
2018-06-11T06:58:44.010Z,99.99
2018-06-11T06:59:44.036Z,99.99
2018-06-11T07:00:44.057Z,99.99
2018-06-11T07:01:44.083Z,99.99
2018-06-11T07:02:44.105Z,99.99
2018-06-11T07:03:44.125Z,99.99
2018-06-11T07:04:44.150Z,99.99
2018-06-11T07:05:44.171Z,99.99
2018-06-11T07:06:44.193Z,99.99
2018-06-11T07:07:44.219Z,99.99
2018-06-11T07:08:44.238Z,99.99
2018-06-11T07:09:44.261Z,99.99
2018-06-11T07:10:44.287Z,99.99
2018-06-11T07:11:44.315Z,99.99
2018-06-11T07:12:44.333Z,99.99
2018-06-11T07:13:44.385Z,99.99
2018-06-11T07:14:44.933Z,99.99
2018-06-11T07:15:44.401Z,99.99
2018-06-11T07:16:44.677Z,99.99
2018-06-11T07:17:44.449Z,99.99
2018-06-11T07:18:44.469Z,99.99
2018-06-11T07:19:44.497Z,99.99
2018-06-11T07:20:44.518Z,99.99
2018-06-11T07:21:44.540Z,99.99
2018-06-11T07:22:44.565Z,99.99
2018-06-11T07:23:44.588Z,99.99
2018-06-11T07:24:44.608Z,99.99
2018-06-11T07:25:44.631Z,99.99
2018-06-11T07:26:45.106Z,99.99
2018-06-11T07:27:44.677Z,99.99
2018-06-11T07:28:44.700Z,99.99
2018-06-11T07:29:45.473Z,99.99
2018-06-11T07:30:44.745Z,99.99
2018-06-11T07:31:44.772Z,99.99
2018-06-11T07:32:44.794Z,99.99
2018-06-11T07:33:44.817Z,99.99
2018-06-11T07:34:44.840Z,99.99
2018-06-11T07:35:44.862Z,99.99
2018-06-11T07:36:44.886Z,99.99
2018-06-11T07:37:44.909Z,99.99
2018-06-11T07:38:44.933Z,99.99
2018-06-11T07:39:44.957Z,99.99
2018-06-11T07:40:44.982Z,99.99
2018-06-11T07:41:45.001Z,99.99
2018-06-11T07:42:45.025Z,99.99
2018-06-11T07:43:45.050Z,99.99
2018-06-11T07:44:45.071Z,99.99
2018-06-11T07:45:45.095Z,99.99
2018-06-11T07:46:45.116Z,99.99
2018-06-11T07:47:45.143Z,99.99
2018-06-11T07:48:45.165Z,99.99
2018-06-11T07:49:45.187Z,99.99
2018-06-11T07:50:45.261Z,99.99
2018-06-11T07:51:45.281Z,99.98
2018-06-11T07:52:45.257Z,99.21
2018-06-11T07:53:45.283Z,97.71
2018-06-11T07:54:45.307Z,98.48
2018-06-11T07:55:45.333Z,98.77
2018-06-11T07:56:45.353Z,98.96
2018-06-11T07:57:45.380Z,98.34
2018-06-11T07:58:45.406Z,97.52
2018-06-11T07:59:45.429Z,98.05
2018-06-11T08:00:45.453Z,98.53
2018-06-11T08:01:45.476Z,97.96
2018-06-11T08:02:45.499Z,96.90
2018-06-11T08:03:45.536Z,95.84
2018-06-11T08:04:45.553Z,96.61
2018-06-11T08:05:45.573Z,96.99
2018-06-11T08:06:45.596Z,97.04
2018-06-11T08:07:45.624Z,95.60
2018-06-11T08:08:45.645Z,94.73
2018-06-11T08:09:45.670Z,95.12
2018-06-11T08:10:45.696Z,92.95
2018-06-11T08:11:45.720Z,91.89
2018-06-11T08:12:45.751Z,91.31
2018-06-11T08:13:45.772Z,91.46
2018-06-11T08:14:45.794Z,92.28
2018-06-11T08:15:45.825Z,92.57
2018-06-11T08:16:45.848Z,90.93
2018-06-11T08:17:45.871Z,90.83
2018-06-11T08:18:49.460Z,90.93
2018-06-11T08:19:45.921Z,89.87
2018-06-11T08:20:45.952Z,91.94
2018-06-11T08:21:45.971Z,93.34
2018-06-11T08:22:45.998Z,95.45
2018-06-11T08:23:46.022Z,96.03
2018-06-11T08:24:46.045Z,96.32
2018-06-11T08:25:46.071Z,94.88
2018-06-11T08:26:46.097Z,94.49
2018-06-11T08:27:46.121Z,95.07
2018-06-11T08:28:46.145Z,95.36
2018-06-11T08:29:46.170Z,96.13
2018-06-11T08:30:46.194Z,94.49
2018-06-11T08:31:46.219Z,94.78
2018-06-11T08:32:46.246Z,96.13
2018-06-11T08:33:46.307Z,94.68
2018-06-11T08:34:46.294Z,94.92
2018-06-11T08:35:46.318Z,93.10
2018-06-11T08:36:46.344Z,93.48
2018-06-11T08:37:46.367Z,94.30
2018-06-11T08:38:46.395Z,96.32
2018-06-11T08:39:46.417Z,95.45
2018-06-11T08:40:46.444Z,94.83
2018-06-11T08:41:46.471Z,93.82
2018-06-11T08:42:46.497Z,94.98
2018-06-11T08:43:46.517Z,94.49
2018-06-11T08:44:46.539Z,94.49
2018-06-11T08:45:46.567Z,94.83
2018-06-11T08:46:46.590Z,94.64
2018-06-11T08:47:46.615Z,94.92
2018-06-11T08:48:46.638Z,94.92
2018-06-11T08:49:46.668Z,94.49
2018-06-11T08:50:46.686Z,96.27
2018-06-11T08:51:46.714Z,96.17
2018-06-11T08:52:46.741Z,97.14
2018-06-11T08:53:46.764Z,97.09
2018-06-11T08:54:46.789Z,95.55
2018-06-11T08:55:46.815Z,94.59
2018-06-11T08:56:46.833Z,94.88
2018-06-11T08:57:46.858Z,94.68
2018-06-11T08:58:46.886Z,94.78
2018-06-11T08:59:46.925Z,95.17
2018-06-11T09:00:46.932Z,95.17
2018-06-11T09:01:46.957Z,94.54
2018-06-11T09:02:46.983Z,92.52
2018-06-11T09:03:47.005Z,92.23
2018-06-11T09:04:47.032Z,92.23
2018-06-11T09:05:47.054Z,92.81
2018-06-11T09:06:47.081Z,93.63
2018-06-11T09:07:47.105Z,93.91
2018-06-11T09:08:47.129Z,94.78
2018-06-11T09:09:47.154Z,95.36
2018-06-11T09:10:47.178Z,94.68
2018-06-11T09:11:47.205Z,92.71
2018-06-11T09:12:47.227Z,92.23
2018-06-11T09:13:47.249Z,91.17
2018-06-11T09:14:47.273Z,92.33
2018-06-11T09:15:47.304Z,91.56
2018-06-11T09:16:47.324Z,91.13
2018-06-11T09:17:47.346Z,90.06
2018-06-11T09:18:47.372Z,90.26
2018-06-11T09:19:47.398Z,89.97
2018-06-11T09:20:47.428Z,88.91
2018-06-11T09:21:47.444Z,86.74
2018-06-11T09:22:47.469Z,85.97
2018-06-11T09:23:47.495Z,86.30
2018-06-11T09:24:47.521Z,86.65
2018-06-11T09:25:47.546Z,90.26
2018-06-11T09:26:47.569Z,89.24
2018-06-11T09:27:47.594Z,88.28
2018-06-11T09:28:47.617Z,89.63
2018-06-11T09:29:47.642Z,87.84
2018-06-11T09:30:47.666Z,87.17
2018-06-11T09:31:47.693Z,86.59
2018-06-11T09:32:47.718Z,86.30
2018-06-11T09:33:47.744Z,86.88
2018-06-11T09:34:47.767Z,85.05
2018-06-11T09:35:47.791Z,85.43
2018-06-11T09:36:47.818Z,85.05
2018-06-11T09:37:47.842Z,83.41
2018-06-11T09:38:47.869Z,84.47
2018-06-11T09:39:47.892Z,83.31
2018-06-11T09:40:47.917Z,82.83
2018-06-11T09:41:47.948Z,82.35
2018-06-11T09:42:47.972Z,81.29
2018-06-11T09:43:48.038Z,81.01
2018-06-11T09:44:48.017Z,80.91
2018-06-11T09:45:48.045Z,80.91
2018-06-11T09:46:48.069Z,80.91
2018-06-11T09:47:48.096Z,81.87
2018-06-11T09:48:48.120Z,81.77
2018-06-11T09:49:48.144Z,81.68
2018-06-11T09:50:48.175Z,82.41
2018-06-11T09:51:48.196Z,82.21
2018-06-11T09:52:48.219Z,81.73
2018-06-11T09:53:48.243Z,81.48
2018-06-11T09:54:48.269Z,82.26
2018-06-11T09:55:48.423Z,82.02
2018-06-11T09:56:48.320Z,82.12
2018-06-11T09:57:48.348Z,81.48
2018-06-11T09:58:48.370Z,79.56
2018-06-11T09:59:48.403Z,78.92
2018-06-11T10:00:48.420Z,78.06
2018-06-11T10:01:48.447Z,77.28
2018-06-11T10:02:48.472Z,76.32
2018-06-11T10:03:48.497Z,75.65
2018-06-11T10:04:48.522Z,75.84
2018-06-11T10:05:48.548Z,77.25
2018-06-11T10:06:48.573Z,77.44
2018-06-11T10:07:48.599Z,76.67
2018-06-11T10:08:48.642Z,75.26
2018-06-11T10:09:48.650Z,74.78
2018-06-11T10:10:48.689Z,74.58
2018-06-11T10:11:48.702Z,73.66
2018-06-11T10:12:48.727Z,73.66
2018-06-11T10:13:48.753Z,74.40
2018-06-11T10:14:48.782Z,74.30
2018-06-11T10:15:48.808Z,74.16
2018-06-11T10:16:48.833Z,76.92
2018-06-11T10:17:48.857Z,77.69
2018-06-11T10:18:48.884Z,77.34
2018-06-11T10:19:48.910Z,77.53
2018-06-11T10:20:48.937Z,75.71
2018-06-11T10:21:48.963Z,78.36
2018-06-11T10:22:48.988Z,78.94
2018-06-11T10:23:49.012Z,78.85
2018-06-11T10:24:49.090Z,79.48
2018-06-11T10:25:49.064Z,79.77
2018-06-11T10:26:49.092Z,79.96
2018-06-11T10:27:49.117Z,79.81
2018-06-11T10:28:49.145Z,77.69
2018-06-11T10:29:49.168Z,78.69
2018-06-11T10:30:49.193Z,76.80
2018-06-11T10:31:49.220Z,76.48
2018-06-11T10:32:49.245Z,76.80
2018-06-11T10:33:49.272Z,76.80
2018-06-11T10:34:49.295Z,75.45
2018-06-11T10:35:49.319Z,75.07
2018-06-11T10:36:49.346Z,76.76
2018-06-11T10:37:49.372Z,77.63
2018-06-11T10:38:49.396Z,78.31
2018-06-11T10:39:49.425Z,78.59
2018-06-11T10:40:49.451Z,77.63
2018-06-11T10:41:49.475Z,77.83
2018-06-11T10:42:49.500Z,77.25
2018-06-11T10:43:49.525Z,77.44
2018-06-11T10:44:49.547Z,78.59
2018-06-11T10:45:49.576Z,77.63
2018-06-11T10:46:49.599Z,77.92
2018-06-11T10:47:49.626Z,78.02
2018-06-11T10:48:49.651Z,76.71
2018-06-11T10:49:49.678Z,76.13
2018-06-11T10:50:49.704Z,75.74
2018-06-11T10:51:49.730Z,73.62
2018-06-11T10:52:49.752Z,75.84
2018-06-11T10:53:49.779Z,76.13
2018-06-11T10:54:49.803Z,76.13
2018-06-11T10:55:49.838Z,74.82
2018-06-11T10:56:49.860Z,73.95
2018-06-11T10:57:49.882Z,74.10
2018-06-11T10:58:50.009Z,74.78
2018-06-11T10:59:49.934Z,74.33
2018-06-11T11:00:49.956Z,73.57
2018-06-11T11:01:49.981Z,73.85
2018-06-11T11:02:50.011Z,74.24
2018-06-11T11:03:50.035Z,74.14
2018-06-11T11:04:50.059Z,73.66
2018-06-11T11:05:50.087Z,74.49
2018-06-11T11:06:50.113Z,76.09
2018-06-11T11:07:50.138Z,75.55
2018-06-11T11:08:50.192Z,73.14
2018-06-11T11:09:50.191Z,73.72
2018-06-11T11:10:50.214Z,72.95
2018-06-11T11:11:50.243Z,73.24
2018-06-11T11:12:50.268Z,72.60
2018-06-11T11:13:50.292Z,71.25
2018-06-11T11:14:50.316Z,70.67
2018-06-11T11:15:50.345Z,71.44
2018-06-11T11:16:50.367Z,71.06
2018-06-11T11:17:50.393Z,70.19
2018-06-11T11:18:50.424Z,70.86
2018-06-11T11:19:50.445Z,72.66
2018-06-11T11:20:50.473Z,71.60
2018-06-11T11:21:50.543Z,72.66
2018-06-11T11:22:50.523Z,73.14
2018-06-11T11:23:50.553Z,70.15
2018-06-11T11:24:50.577Z,70.76
2018-06-11T11:25:50.603Z,70.67
2018-06-11T11:26:50.631Z,71.12
2018-06-11T11:27:50.655Z,71.15
2018-06-11T11:28:50.677Z,70.64
2018-06-11T11:29:50.705Z,71.64
2018-06-11T11:30:50.732Z,71.54
2018-06-11T11:31:50.758Z,70.86
2018-06-11T11:32:50.779Z,71.06
2018-06-11T11:33:50.828Z,71.34
2018-06-11T11:34:50.830Z,71.02
2018-06-11T11:35:50.862Z,71.92
2018-06-11T11:36:50.885Z,72.79
2018-06-11T11:37:50.909Z,72.69
2018-06-11T11:38:50.936Z,72.21
2018-06-11T11:39:50.961Z,71.06
2018-06-11T11:40:50.988Z,71.70
2018-06-11T11:41:51.014Z,72.47
2018-06-11T11:42:51.039Z,73.53
2018-06-11T11:43:51.065Z,72.95
2018-06-11T11:44:51.087Z,72.47
2018-06-11T11:45:51.115Z,71.79
2018-06-11T11:46:51.139Z,72.02
2018-06-11T11:47:51.166Z,70.96
2018-06-11T11:48:51.190Z,70.09
2018-06-11T11:49:51.217Z,69.23
2018-06-11T11:50:51.243Z,68.29
2018-06-11T11:51:51.269Z,68.10
2018-06-11T11:52:51.593Z,67.52
2018-06-11T11:53:51.320Z,67.71
2018-06-11T11:54:51.347Z,68.39
2018-06-11T11:55:51.372Z,69.45
2018-06-11T11:56:51.395Z,68.59
2018-06-11T11:57:51.423Z,69.58
2018-06-11T11:58:51.449Z,68.81
2018-06-11T11:59:51.476Z,68.91
2018-06-11T12:00:51.499Z,68.71
2018-06-11T12:01:51.525Z,66.82
2018-06-11T12:02:51.551Z,66.78
2018-06-11T12:03:51.579Z,66.08
2018-06-11T12:04:51.604Z,67.14
2018-06-11T12:05:51.629Z,67.43
2018-06-11T12:06:51.658Z,67.71
2018-06-11T12:07:51.680Z,68.29
2018-06-11T12:08:51.709Z,67.55
2018-06-11T12:09:51.735Z,67.85
2018-06-11T12:10:51.760Z,68.23
2018-06-11T12:11:51.785Z,67.55
2018-06-11T12:12:51.810Z,67.36
2018-06-11T12:13:51.889Z,67.52
2018-06-11T12:14:51.862Z,68.55
2018-06-11T12:15:51.889Z,68.39
2018-06-11T12:16:51.913Z,68.19
2018-06-11T12:17:51.944Z,67.71
2018-06-11T12:18:51.965Z,68.81
2018-06-11T12:19:51.992Z,68.43
2018-06-11T12:20:52.018Z,68.33
2018-06-11T12:21:52.045Z,67.85
2018-06-11T12:22:52.072Z,68.13
2018-06-11T12:23:52.096Z,68.13
2018-06-11T12:24:52.124Z,68.13
2018-06-11T12:25:52.400Z,67.88
2018-06-11T12:26:52.176Z,67.69
2018-06-11T12:27:52.201Z,67.40
2018-06-11T12:28:52.224Z,67.49
2018-06-11T12:29:52.254Z,67.11
2018-06-11T12:30:52.281Z,67.07
2018-06-11T12:31:52.307Z,67.75
2018-06-11T12:32:52.332Z,69.07
2018-06-11T12:33:52.355Z,68.62
2018-06-11T12:34:52.384Z,68.62
2018-06-11T12:35:52.409Z,68.33
2018-06-11T12:36:52.434Z,67.65
2018-06-11T12:37:52.465Z,67.55
2018-06-11T12:38:52.485Z,67.01
2018-06-11T12:39:52.519Z,67.11
2018-06-11T12:40:52.537Z,67.20
2018-06-11T12:41:52.566Z,67.20
2018-06-11T12:42:52.591Z,67.40
2018-06-11T12:43:52.617Z,67.20
2018-06-11T12:44:52.641Z,66.72
2018-06-11T12:45:52.668Z,65.95
2018-06-11T12:46:52.698Z,65.75
2018-06-11T12:47:52.723Z,65.17
2018-06-11T12:48:52.749Z,65.08
2018-06-11T12:49:52.773Z,65.17
2018-06-11T12:50:52.803Z,65.27
2018-06-11T12:51:52.828Z,66.78
2018-06-11T12:52:52.851Z,67.36